createdAt,value
2022-09-29T00:00:27.255Z,99674.81
2022-09-29T00:04:03.632Z,99671.89
2022-09-29T00:07:40.468Z,99668.46
2022-09-29T00:14:54.690Z,99671.59
2022-09-29T00:18:32.467Z,99673.78
2022-09-29T00:22:07.842Z,99671.96
2022-09-29T00:25:44.425Z,99675.94
2022-09-29T00:29:21.173Z,99678.13
2022-09-29T00:32:57.968Z,99678.57
2022-09-29T00:36:34.758Z,99678.81
2022-09-29T00:40:11.978Z,99678.54
2022-09-29T00:43:52.264Z,99678.80
2022-09-29T00:47:26.270Z,99681.48
2022-09-29T00:51:02.845Z,99682.77
2022-09-29T00:54:44.837Z,99688.57
2022-09-29T00:58:24.312Z,99686.89
2022-09-29T01:01:52.847Z,99693.05
2022-09-29T01:05:37.213Z,99693.23
2022-09-29T01:09:13.784Z,99694.64
2022-09-29T01:12:43.950Z,99688.19
2022-09-29T01:16:19.407Z,99692.05
2022-09-29T01:20:10.216Z,99686.13
2022-09-29T01:24:11.014Z,99688.59
2022-09-29T01:27:47.793Z,99684.59
2022-09-29T01:31:24.380Z,99684.28
2022-09-29T01:35:10.095Z,99688.48
2022-09-29T01:38:32.851Z,99685.49
2022-09-29T01:42:16.294Z,99687.27
2022-09-29T01:45:44.682Z,99685.85
2022-09-29T01:49:14.871Z,99687.58
2022-09-29T01:52:56.937Z,99686.02
2022-09-29T01:56:38.919Z,99687.42
2022-09-29T02:00:14.418Z,99686.59
2022-09-29T02:03:50.313Z,99685.02
2022-09-29T02:07:26.537Z,99680.54
2022-09-29T02:11:13.574Z,99681.78
2022-09-29T02:14:40.003Z,99681.27
2022-09-29T02:18:13.533Z,99679.02
2022-09-29T02:21:45.512Z,99681.11
2022-09-29T02:25:22.758Z,99679.36
2022-09-29T02:28:58.427Z,99680.05
2022-09-29T02:32:36.711Z,99677.27
2022-09-29T02:36:50.446Z,99677.78
2022-09-29T02:40:09.774Z,99679.73
2022-09-29T02:43:50.103Z,99683.24
2022-09-29T02:47:42.062Z,99690.94
2022-09-29T02:54:48.231Z,99697.38
2022-09-29T03:01:58.051Z,99698.13
2022-09-29T03:05:24.132Z,99699.56
2022-09-29T03:08:58.260Z,99695.38
2022-09-29T03:12:35.752Z,99698.33
2022-09-29T03:16:12.112Z,99706.75
2022-09-29T03:19:48.502Z,99711.64
2022-09-29T03:23:25.562Z,99713.59
2022-09-29T03:27:02.540Z,99719.70
2022-09-29T03:30:38.990Z,99718.66
2022-09-29T03:34:15.974Z,99716.71
2022-09-29T03:37:57.031Z,99718.48
2022-09-29T03:41:29.501Z,99717.27
2022-09-29T03:45:06.922Z,99718.34
2022-09-29T03:48:43.201Z,99721.69
2022-09-29T03:52:20.309Z,99724.88
2022-09-29T03:55:56.515Z,99734.15
2022-09-29T03:59:33.157Z,99737.63
2022-09-29T04:03:10.566Z,99739.20
2022-09-29T04:10:23.773Z,99743.71
2022-09-29T04:14:00.295Z,99745.80
2022-09-29T04:17:37.113Z,99747.55
2022-09-29T04:21:14.512Z,99749.48
2022-09-29T04:24:52.257Z,99753.34
2022-09-29T04:28:28.018Z,99756.46
2022-09-29T04:32:06.308Z,99757.52
2022-09-29T04:35:41.403Z,99763.48
2022-09-29T04:39:17.929Z,99763.66
2022-09-29T04:42:55.430Z,99766.98
2022-09-29T04:46:31.519Z,99769.27
2022-09-29T04:50:09.951Z,99776.05
2022-09-29T04:53:45.424Z,99780.95
2022-09-29T04:57:22.720Z,99779.73
2022-09-29T05:01:06.674Z,99779.71
2022-09-29T05:04:35.767Z,99785.08
2022-09-29T05:08:12.555Z,99786.62
2022-09-29T05:11:49.167Z,99787.85
2022-09-29T05:15:26.277Z,99793.63
2022-09-29T05:19:03.262Z,99794.33
2022-09-29T05:22:39.638Z,99793.60
2022-09-29T05:26:16.984Z,99798.88
2022-09-29T05:29:53.062Z,99804.31
2022-09-29T05:37:06.779Z,99805.90
2022-09-29T05:40:45.703Z,99803.07
2022-09-29T05:44:20.235Z,99803.75
2022-09-29T05:47:57.577Z,99806.66
2022-09-29T05:51:33.718Z,99806.96
2022-09-29T05:55:11.178Z,99811.39
2022-09-29T05:58:48.082Z,99810.42
2022-09-29T06:02:24.507Z,99813.89
2022-09-29T06:06:08.981Z,99811.85
2022-09-29T06:09:37.926Z,99812.04
2022-09-29T06:16:51.432Z,99807.63
2022-09-29T06:20:28.445Z,99805.83
2022-09-29T06:24:07.356Z,99810.09
2022-09-29T06:27:41.655Z,99811.44
2022-09-29T06:31:21.402Z,99818.63
2022-09-29T06:35:13.801Z,99821.31
2022-09-29T06:38:32.346Z,99823.02
2022-09-29T06:42:08.793Z,99823.23
2022-09-29T06:45:45.587Z,99826.10
2022-09-29T06:49:23.213Z,99829.96
2022-09-29T06:53:04.392Z,99835.61
2022-09-29T06:56:36.009Z,99837.73
2022-09-29T07:00:12.764Z,99833.31
2022-09-29T07:04:12.578Z,99826.91
2022-09-29T07:07:52.194Z,99829.12
2022-09-29T07:11:27.368Z,99833.51
2022-09-29T07:15:02.916Z,99833.09
2022-09-29T07:18:42.333Z,99832.85
2022-09-29T07:22:16.471Z,99831.36
2022-09-29T07:25:53.456Z,99835.30
2022-09-29T07:29:33.198Z,99840.01
2022-09-29T07:33:07.154Z,99842.84
2022-09-29T07:36:43.673Z,99850.92
2022-09-29T07:40:24.698Z,99852.54
2022-09-29T07:43:59.248Z,99855.25
2022-09-29T07:47:36.252Z,99865.15
2022-09-29T07:51:13.996Z,99868.05
2022-09-29T07:54:47.613Z,99874.20
2022-09-29T07:58:24.495Z,99873.46
2022-09-29T08:05:42.131Z,99876.16
2022-09-29T08:09:15.261Z,99876.20
2022-09-29T08:12:51.559Z,99885.79
2022-09-29T08:16:28.676Z,99892.26
2022-09-29T08:20:05.652Z,99897.92
2022-09-29T08:23:44.065Z,99899.26
2022-09-29T08:27:19.574Z,99905.23
2022-09-29T08:30:55.643Z,99906.02
2022-09-29T08:34:33.733Z,99907.19
2022-09-29T08:38:09.463Z,99915.44
2022-09-29T08:42:07.420Z,99920.99
2022-09-29T08:45:31.563Z,99922.39
2022-09-29T08:49:07.220Z,99925.73
2022-09-29T08:52:51.676Z,99932.12
2022-09-29T08:56:18.822Z,99939.24
2022-09-29T08:59:58.061Z,99939.38
2022-09-29T09:03:48.402Z,99941.93
2022-09-29T09:07:41.409Z,99950.19
2022-09-29T09:10:57.526Z,99952.71
2022-09-29T09:14:27.780Z,99961.77
2022-09-29T09:18:22.625Z,99966.51
2022-09-29T09:21:44.814Z,99965.40
2022-09-29T09:25:13.281Z,99963.98
2022-09-29T09:29:01.916Z,99969.36
2022-09-29T09:32:30.650Z,99971.64
2022-09-29T09:36:34.258Z,99971.27
2022-09-29T09:39:48.303Z,99970.19
2022-09-29T09:43:44.872Z,99975.27
2022-09-29T09:47:02.454Z,99972.42
2022-09-29T09:50:32.324Z,99979.62
2022-09-29T09:54:31.561Z,99976.64
2022-09-29T09:58:14.581Z,99981.70
2022-09-29T10:01:27.937Z,99983.71
2022-09-29T10:05:07.557Z,99988.30
2022-09-29T10:08:42.429Z,99989.99
2022-09-29T10:12:20.639Z,99993.20
2022-09-29T10:16:06.903Z,100003.27
2022-09-29T10:19:58.709Z,100005.92
2022-09-29T10:23:26.553Z,100009.87
2022-09-29T10:26:48.095Z,100013.99
2022-09-29T10:30:34.577Z,100013.91
2022-09-29T10:33:58.657Z,100018.48
2022-09-29T10:37:38.891Z,100025.08
2022-09-29T10:41:12.272Z,100031.41
2022-09-29T10:44:55.179Z,100028.94
2022-09-29T10:48:27.796Z,100034.12
2022-09-29T10:52:06.329Z,100035.58
2022-09-29T10:55:56.237Z,100038.17
2022-09-29T10:59:18.228Z,100044.75
2022-09-29T11:03:00.535Z,100046.74
2022-09-29T11:06:33.019Z,100052.00
2022-09-29T11:10:29.763Z,100057.09
2022-09-29T11:13:46.711Z,100059.39
2022-09-29T11:17:29.640Z,100062.69
2022-09-29T11:21:18.069Z,100064.23
2022-09-29T11:25:11.272Z,100067.77
2022-09-29T11:28:24.740Z,100072.25
2022-09-29T11:32:15.083Z,100071.00
2022-09-29T11:35:58.072Z,100072.02
2022-09-29T11:39:40.149Z,100075.26
2022-09-29T11:43:05.884Z,100078.48
2022-09-29T11:47:12.713Z,100078.40
2022-09-29T11:50:47.326Z,100087.48
2022-09-29T11:54:21.273Z,100088.70
2022-09-29T11:57:47.159Z,100089.83
2022-09-29T12:01:44.127Z,100093.54
2022-09-29T12:05:23.990Z,100093.23
2022-09-29T12:08:54.161Z,100099.11
2022-09-29T12:16:28.340Z,100104.14
2022-09-29T12:19:32.072Z,100107.52
2022-09-29T12:23:11.603Z,100113.08
2022-09-29T12:26:43.740Z,100113.61
2022-09-29T12:30:30.249Z,100112.43
2022-09-29T12:34:00.708Z,100112.31
2022-09-29T12:37:43.819Z,100115.44
2022-09-29T12:41:11.593Z,100120.60
2022-09-29T12:44:57.525Z,100120.06
2022-09-29T12:48:53.415Z,100124.52
2022-09-29T12:52:02.570Z,100129.23
2022-09-29T12:55:59.186Z,100130.89
2022-09-29T12:59:25.365Z,100138.59
2022-09-29T13:03:33.621Z,100137.67
2022-09-29T13:07:03.444Z,100136.29
2022-09-29T13:10:48.193Z,100136.80
2022-09-29T13:13:56.500Z,100139.97
2022-09-29T13:18:07.375Z,100140.63
2022-09-29T13:21:41.560Z,100138.87
2022-09-29T13:25:12.230Z,100133.58
2022-09-29T13:28:42.869Z,100137.58
2022-09-29T13:32:11.761Z,100143.02
2022-09-29T13:35:50.285Z,100144.86
2022-09-29T13:39:39.347Z,100147.80
2022-09-29T13:43:05.909Z,100148.42
2022-09-29T13:46:40.435Z,100150.47
2022-09-29T13:50:48.522Z,100152.34
2022-09-29T13:54:32.980Z,100148.64
2022-09-29T13:57:52.611Z,100150.48
2022-09-29T14:01:39.709Z,100155.16
2022-09-29T14:05:01.350Z,100158.84
2022-09-29T14:08:40.461Z,100161.55
2022-09-29T14:12:24.651Z,100163.89
2022-09-29T14:16:12.869Z,100160.11
2022-09-29T14:19:42.513Z,100163.02
2022-09-29T14:23:07.069Z,100166.81
2022-09-29T14:26:51.895Z,100172.15
2022-09-29T14:30:41.476Z,100172.66
2022-09-29T14:33:55.907Z,100173.46
2022-09-29T14:37:31.870Z,100179.36
2022-09-29T14:41:08.545Z,100185.60
2022-09-29T14:45:03.873Z,100191.20
2022-09-29T14:52:19.234Z,100197.27
2022-09-29T14:56:14.872Z,100203.66
2022-09-29T14:59:48.087Z,100207.05
2022-09-29T15:03:05.134Z,100210.08
2022-09-29T15:06:35.536Z,100217.13
2022-09-29T15:10:22.869Z,100225.36
2022-09-29T15:13:49.101Z,100227.36
2022-09-29T15:17:50.511Z,100228.13
2022-09-29T15:21:26.594Z,100230.29
2022-09-29T15:24:57.935Z,100236.86
2022-09-29T15:28:21.220Z,100240.35
2022-09-29T15:31:53.817Z,100243.77
2022-09-29T15:35:31.300Z,100246.06
2022-09-29T15:39:23.310Z,100251.95
2022-09-29T15:42:46.900Z,100259.33
2022-09-29T15:46:23.513Z,100263.13
2022-09-29T15:49:57.096Z,100265.21
2022-09-29T15:53:33.833Z,100272.73
2022-09-29T15:57:44.316Z,100275.53
2022-09-29T16:01:08.281Z,100277.48
2022-09-29T16:04:24.514Z,100278.79
2022-09-29T16:08:05.650Z,100284.44
2022-09-29T16:11:40.325Z,100291.42
2022-09-29T16:15:30.930Z,100295.00
2022-09-29T16:18:53.357Z,100295.41
2022-09-29T16:22:28.745Z,100301.41
2022-09-29T16:26:18.384Z,100307.14
2022-09-29T16:29:42.367Z,100310.77
2022-09-29T16:33:22.951Z,100315.55
2022-09-29T16:37:07.270Z,100317.14
2022-09-29T16:40:33.434Z,100322.61
2022-09-29T16:44:10.944Z,100324.85
2022-09-29T16:47:46.083Z,100328.37
2022-09-29T16:51:40.539Z,100334.94
2022-09-29T16:55:21.544Z,100339.48
2022-09-29T16:58:36.775Z,100347.73
2022-09-29T17:02:14.519Z,100354.79
2022-09-29T17:05:51.549Z,100359.70
2022-09-29T17:09:27.514Z,100362.35
2022-09-29T17:13:10.560Z,100365.84
2022-09-29T17:16:41.751Z,100367.45
2022-09-29T17:20:29.893Z,100369.80
2022-09-29T17:24:12.680Z,100374.15
2022-09-29T17:27:51.082Z,100375.23
2022-09-29T17:31:11.130Z,100375.08
2022-09-29T17:34:43.876Z,100377.58
2022-09-29T17:38:21.233Z,100380.98
2022-09-29T17:41:59.403Z,100385.58
2022-09-29T17:45:35.657Z,100382.47
2022-09-29T17:49:18.138Z,100387.45
2022-09-29T17:52:48.352Z,100392.91
2022-09-29T17:56:26.328Z,100397.46
2022-09-29T18:00:02.195Z,100400.80
2022-09-29T18:03:40.114Z,100394.38
2022-09-29T18:07:15.949Z,100394.23
2022-09-29T18:10:53.457Z,100397.42
2022-09-29T18:14:30.157Z,100401.85
2022-09-29T18:18:08.172Z,100408.05
2022-09-29T18:25:20.189Z,100415.00
2022-09-29T18:28:56.417Z,100421.54
2022-09-29T18:32:33.366Z,100421.55
2022-09-29T18:36:11.993Z,100426.00
2022-09-29T18:39:46.740Z,100432.01
2022-09-29T18:43:26.419Z,100430.95
2022-09-29T18:47:19.016Z,100433.10
2022-09-29T18:50:40.592Z,100444.36
2022-09-29T18:54:13.689Z,100449.14
2022-09-29T18:57:50.952Z,100450.74
2022-09-29T19:01:28.001Z,100453.24
2022-09-29T19:05:05.195Z,100455.89
2022-09-29T19:08:42.904Z,100460.16
2022-09-29T19:12:20.819Z,100466.38
2022-09-29T19:15:59.532Z,100470.65
2022-09-29T19:19:30.894Z,100475.60
2022-09-29T19:23:08.496Z,100478.07
2022-09-29T19:26:44.783Z,100480.36
2022-09-29T19:30:22.907Z,100486.38
2022-09-29T19:33:58.277Z,100490.42
2022-09-29T19:37:35.055Z,100495.53
2022-09-29T19:41:19.311Z,100494.48
2022-09-29T19:44:48.956Z,100495.92
2022-09-29T19:52:04.387Z,100498.61
2022-09-29T19:55:40.405Z,100506.73
2022-09-29T19:59:18.913Z,100515.73
2022-09-29T20:02:54.204Z,100518.23
2022-09-29T20:06:30.226Z,100525.27
2022-09-29T20:10:08.753Z,100535.84
2022-09-29T20:13:44.093Z,100535.02
2022-09-29T20:17:20.208Z,100534.71
2022-09-29T20:20:56.915Z,100539.84
2022-09-29T20:24:33.429Z,100540.92
2022-09-29T20:28:15.101Z,100542.35
2022-09-29T20:31:48.212Z,100543.43
2022-09-29T20:35:23.490Z,100545.37
2022-09-29T20:39:00.980Z,100550.27
2022-09-29T20:42:38.592Z,100552.73
2022-09-29T20:46:14.599Z,100551.52
2022-09-29T20:49:51.209Z,100553.27
2022-09-29T20:53:34.374Z,100560.64
2022-09-29T20:57:04.424Z,100561.68
2022-09-29T21:00:41.352Z,100562.04
2022-09-29T21:04:20.875Z,100565.38
2022-09-29T21:07:55.952Z,100569.40
2022-09-29T21:11:38.143Z,100573.63
2022-09-29T21:15:08.914Z,100577.64
2022-09-29T21:18:46.361Z,100575.38
2022-09-29T21:22:27.257Z,100576.42
2022-09-29T21:26:03.157Z,100575.39
2022-09-29T21:29:35.859Z,100572.95
2022-09-29T21:33:12.424Z,100576.11
2022-09-29T21:36:49.511Z,100571.02
2022-09-29T21:40:26.064Z,100582.25
2022-09-29T21:44:06.770Z,100582.96
2022-09-29T21:47:58.443Z,100591.55
2022-09-29T21:51:22.725Z,100596.46
2022-09-29T21:54:53.570Z,100598.38
2022-09-29T21:58:30.599Z,100598.75
2022-09-29T22:02:07.535Z,100604.73
2022-09-29T22:05:43.530Z,100608.91
2022-09-29T22:09:21.733Z,100611.02
2022-09-29T22:12:57.304Z,100610.15
2022-09-29T22:16:35.705Z,100613.84
2022-09-29T22:20:10.440Z,100614.19
2022-09-29T22:23:47.913Z,100615.77
2022-09-29T22:27:24.552Z,100619.45
2022-09-29T22:31:09.556Z,100627.52
2022-09-29T22:34:39.172Z,100628.20
2022-09-29T22:38:14.839Z,100638.53
2022-09-29T22:41:53.153Z,100641.52
2022-09-29T22:45:28.813Z,100644.48
2022-09-29T22:49:05.093Z,100647.83
2022-09-29T22:52:41.799Z,100658.50
2022-09-29T22:56:21.804Z,100660.77
2022-09-29T22:59:55.496Z,100668.82
2022-09-29T23:03:32.902Z,100668.10
2022-09-29T23:07:09.316Z,100670.37
2022-09-29T23:10:48.391Z,100671.95
2022-09-29T23:14:22.970Z,100675.79
2022-09-29T23:25:13.103Z,100682.63
2022-09-29T23:28:50.106Z,100686.66
2022-09-29T23:32:26.549Z,100692.42
2022-09-29T23:36:07.970Z,100690.31
2022-09-29T23:39:40.420Z,100692.59
2022-09-29T23:43:17.352Z,100695.73
2022-09-29T23:46:55.756Z,100695.73
2022-09-29T23:50:33.071Z,100701.50
2022-09-29T23:54:07.881Z,100703.94
2022-09-29T23:57:44.194Z,100707.45
